Stations météo

réclame
Mon MeteoGroup
Salsburgh, Grande-Bretagne (99024): Température de l'air & dewpoint: 17.03.2019 15:00:00 - 23.03.2019 15:00:00 (GMT)Salsburgh, Grande-Bretagne (99024): Vitesse du vent & gusts: 17.03.2019 15:00:00 - 23.03.2019 15:00:00 (GMT)Salsburgh, Grande-Bretagne (99024): Direction du vent: 17.03.2019 15:00:00 - 23.03.2019 15:00:00 (GMT)Salsburgh, Grande-Bretagne (99024): Quantités de précipitations: 17.03.2019 15:00:00 - 23.03.2019 15:00:00 (GMT)
Date & Time tt [°C] td [°C] ff [km/h] ff [knt] fx [km/h] fx [knt] dd rr [mm]
23.03.2019 15:00:00 - - - - - - - -
23.03.2019 14:00:00 7,0 1,7 24 13 54 29 WNW 0,0
23.03.2019 13:00:00 7,1 0,8 26 14 - - WSW 0,0
23.03.2019 12:00:00 7,9 0,6 28 15 46 25 W 0,0
23.03.2019 11:00:00 6,5 0,5 31 17 48 26 W 0,0
23.03.2019 10:00:00 5,7 1,3 28 15 48 26 W 0,0
23.03.2019 09:00:00 4,5 1,6 28 15 - - W 0,0
23.03.2019 08:00:00 3,5 1,0 26 14 - - WSW 0,0
23.03.2019 07:00:00 2,6 0,6 28 15 - - NW 0,0
23.03.2019 06:00:00 2,1 0,0 31 17 - - W 0,0
23.03.2019 05:00:00 2,4 0,2 29 16 48 26 W 0,0
23.03.2019 04:00:00 2,7 0,1 31 17 50 27 WSW 0,0
23.03.2019 03:00:00 2,3 0,4 28 15 - - WSW 0,0
23.03.2019 02:00:00 2,8 0,1 28 15 - - WSW 0,0
23.03.2019 01:00:00 2,7 0,7 28 15 - - WSW 0,0
23.03.2019 00:00:00 3,3 0,9 29 16 - - WSW 0,0
22.03.2019 23:00:00 3,3 1,2 31 17 52 28 WSW 0,0
22.03.2019 22:00:00 3,7 1,9 31 17 52 28 W 0,0
22.03.2019 21:00:00 4,0 2,0 39 21 65 35 W 0,2
22.03.2019 20:00:00 5,3 1,2 35 19 59 32 W 0,0
22.03.2019 19:00:00 5,6 1,4 35 19 63 34 WNW 0,0
22.03.2019 18:00:00 6,2 2,2 44 24 67 36 W 0,0
22.03.2019 17:00:00 7,0 2,9 44 24 65 35 NW 0,0
22.03.2019 16:00:00 7,6 6,6 39 21 57 31 W 0,0
22.03.2019 15:00:00 6,9 6,9 34 18 48 26 WNW 0,2
22.03.2019 14:00:00 6,3 6,0 35 19 67 36 W 1,4
22.03.2019 13:00:00 7,9 7,7 37 20 63 34 SSW 0,8
22.03.2019 12:00:00 8,0 7,3 39 21 65 35 SW 0,8
22.03.2019 11:00:00 8,7 6,5 48 26 68 37 SSW 0,0
22.03.2019 10:00:00 8,6 6,9 46 25 74 40 SSW 0,0
22.03.2019 09:00:00 8,5 6,5 46 25 65 35 SSW 0,0
22.03.2019 08:00:00 8,3 6,7 46 25 65 35 SSW 0,0
22.03.2019 07:00:00 7,7 7,3 42 23 63 34 SSW 0,0
22.03.2019 06:00:00 7,7 7,0 35 19 57 31 SSW 0,0
22.03.2019 05:00:00 7,7 6,4 39 21 61 33 SSW 0,0
22.03.2019 04:00:00 7,4 6,6 35 19 - - S 0,0
22.03.2019 03:00:00 6,9 5,9 29 16 48 26 S 0,0
22.03.2019 02:00:00 7,0 6,1 39 21 52 28 S 0,0
22.03.2019 01:00:00 7,8 6,6 35 19 57 31 S 0,0
22.03.2019 00:00:00 7,8 6,5 34 18 50 27 S 0,0
21.03.2019 23:00:00 7,4 6,6 37 20 50 27 S 0,0
21.03.2019 22:00:00 8,1 7,2 31 17 - - S 0,0
21.03.2019 21:00:00 8,6 7,6 35 19 54 29 S 0,0
21.03.2019 20:00:00 9,1 8,1 31 17 46 25 S 0,0
21.03.2019 19:00:00 9,7 9,1 26 14 - - S 0,0
21.03.2019 18:00:00 10,1 9,6 15 8 - - SSW 0,0
21.03.2019 17:00:00 10,7 9,4 22 12 - - SSW 0,0
21.03.2019 16:00:00 10,5 9,3 15 8 - - W 0,0
21.03.2019 15:00:00 10,6 9,5 21 11 - - W 0,0
21.03.2019 14:00:00 11,2 10,0 28 15 - - WSW 0,0
21.03.2019 13:00:00 10,7 9,7 28 15 - - WSW 0,0
21.03.2019 12:00:00 10,0 9,5 28 15 - - WSW 0,0
21.03.2019 11:00:00 9,6 9,5 29 16 - - WSW 0,0
21.03.2019 10:00:00 9,2 9,2 29 16 - - WSW 0,0
21.03.2019 09:00:00 9,0 9,0 31 17 46 25 W 0,2
21.03.2019 08:00:00 9,0 8,7 31 17 50 27 W 0,0
21.03.2019 07:00:00 9,0 8,4 34 18 54 29 SW 0,0
21.03.2019 06:00:00 8,7 8,2 34 18 55 30 SW 0,0
21.03.2019 05:00:00 8,6 8,1 35 19 48 26 NW 0,0
21.03.2019 04:00:00 8,6 8,4 34 18 50 27 SW 0,0
21.03.2019 03:00:00 8,8 8,5 39 21 55 30 WSW 0,0
21.03.2019 02:00:00 9,1 8,8 39 21 54 29 WSW 0,0
21.03.2019 01:00:00 9,5 9,2 37 20 55 30 SW 0,0
21.03.2019 00:00:00 9,9 9,5 31 17 50 27 WSW 0,0
20.03.2019 23:00:00 9,9 9,6 35 19 52 28 NW 0,2
20.03.2019 22:00:00 10,0 10,0 41 22 54 29 NNW 0,4
20.03.2019 21:00:00 9,9 9,7 37 20 52 28 SW 0,0
20.03.2019 20:00:00 10,4 9,6 39 21 52 28 SSW 0,0
20.03.2019 19:00:00 10,5 9,7 34 18 48 26 SW 0,0
20.03.2019 18:00:00 10,5 9,7 31 17 54 29 SW 0,0
20.03.2019 17:00:00 10,9 9,5 31 17 50 27 WSW 0,0
20.03.2019 16:00:00 11,5 9,6 34 18 48 26 WSW 0,0
20.03.2019 15:00:00 11,5 9,9 31 17 50 27 SW 0,0
20.03.2019 14:00:00 11,9 10,4 31 17 48 26 SW 0,0
20.03.2019 13:00:00 10,5 9,4 37 20 48 26 W 0,0
20.03.2019 12:00:00 11,0 10,3 31 17 - - SSW 0,0
20.03.2019 11:00:00 9,3 9,3 31 17 46 25 SW 0,0
20.03.2019 10:00:00 8,7 8,7 31 17 - - SW 0,0
20.03.2019 09:00:00 8,5 8,5 29 16 - - WSW 0,2
20.03.2019 08:00:00 8,1 8,1 31 17 - - SW 0,0
20.03.2019 07:00:00 7,9 7,9 28 15 - - SW 0,0
20.03.2019 06:00:00 7,6 7,6 24 13 - - NW 0,2
20.03.2019 05:00:00 7,4 7,4 31 17 - - WSW 0,0
20.03.2019 04:00:00 7,4 7,4 24 13 - - SSW 0,2
20.03.2019 03:00:00 7,4 7,4 26 14 - - SW 0,4
20.03.2019 02:00:00 7,5 7,5 34 18 - - WSW 0,2
20.03.2019 01:00:00 7,5 7,5 22 12 - - W 0,0
20.03.2019 00:00:00 7,5 7,5 31 17 - - W 0,4
19.03.2019 23:00:00 7,5 7,5 31 17 - - SW 0,2
19.03.2019 22:00:00 7,7 7,5 29 16 - - WSW 0,0
19.03.2019 21:00:00 7,6 7,6 22 12 - - WSW 0,0
19.03.2019 20:00:00 7,5 7,5 28 15 - - W 0,0
19.03.2019 19:00:00 7,6 7,5 31 17 52 28 SW 0,0
19.03.2019 18:00:00 7,7 7,5 35 19 57 31 WNW 0,0
19.03.2019 17:00:00 8,1 8,0 35 19 50 27 WSW 0,0
19.03.2019 16:00:00 8,2 8,0 31 17 - - NW 0,0
19.03.2019 15:00:00 8,1 8,1 24 13 - - NW 0,4
19.03.2019 14:00:00 8,2 8,0 24 13 - - WNW 0,2
19.03.2019 13:00:00 7,9 7,3 24 13 - - WSW 0,0
19.03.2019 12:00:00 7,3 6,5 28 15 - - SW 0,0
19.03.2019 11:00:00 6,9 6,1 34 18 48 26 SW 0,0
19.03.2019 10:00:00 6,9 5,7 31 17 48 26 W 0,0
19.03.2019 09:00:00 6,3 6,3 24 13 - - WNW 0,0
19.03.2019 08:00:00 6,1 6,1 21 11 - - SW 0,2
19.03.2019 07:00:00 5,9 5,9 22 12 - - SW 0,0
19.03.2019 06:00:00 6,1 6,1 22 12 - - W 0,0
19.03.2019 05:00:00 5,8 5,8 16 9 - - S 0,4
19.03.2019 04:00:00 5,4 5,4 16 9 - - S 0,0
19.03.2019 03:00:00 4,9 4,9 15 8 - - S 0,0
19.03.2019 02:00:00 4,9 4,9 15 8 - - SSW 0,0
19.03.2019 01:00:00 4,8 4,8 11 6 - - SSW 0,0
19.03.2019 00:00:00 4,8 4,8 11 6 - - SW 0,0
18.03.2019 23:00:00 4,8 4,7 8 4 - - SSW 0,0
18.03.2019 22:00:00 5,3 5,1 9 5 - - NNW 0,0
18.03.2019 21:00:00 5,5 5,2 8 4 - - SSW 0,0
18.03.2019 20:00:00 5,4 5,1 5 3 - - S 0,0
18.03.2019 19:00:00 5,5 4,9 5 3 - - S 0,0
18.03.2019 18:00:00 6,2 4,6 8 4 - - W 0,0
18.03.2019 17:00:00 6,4 4,4 13 7 - - WSW 0,0
18.03.2019 16:00:00 6,3 4,2 15 8 - - SW 0,0
18.03.2019 15:00:00 6,6 4,2 16 9 - - WSW 0,0
18.03.2019 14:00:00 7,2 4,8 18 10 - - WSW 0,0
18.03.2019 13:00:00 7,2 6,0 18 10 - - SSW 0,0
18.03.2019 12:00:00 5,5 5,0 15 8 - - S 0,0
18.03.2019 11:00:00 4,8 4,2 16 9 - - WNW 0,2
18.03.2019 10:00:00 3,8 3,5 15 8 - - SSW 0,0
18.03.2019 09:00:00 3,2 3,1 11 6 - - SSW 0,4
18.03.2019 08:00:00 2,4 2,2 13 7 - - SSW 0,0
18.03.2019 07:00:00 1,3 1,0 8 4 - - S 0,0
18.03.2019 06:00:00 1,1 0,8 8 4 - - S 0,0
18.03.2019 05:00:00 0,6 0,3 8 4 - - WSW 0,0
18.03.2019 04:00:00 0,7 0,2 15 8 - - WSW 0,0
18.03.2019 03:00:00 0,4 -0,4 11 6 - - SW 0,0
18.03.2019 02:00:00 1,2 0,5 8 4 - - SSW 0,0
18.03.2019 01:00:00 0,2 -0,7 8 4 - - SSW 0,0
18.03.2019 00:00:00 0,8 -0,6 15 8 - - W 0,0
17.03.2019 23:00:00 1,2 -1,6 15 8 - - W 0,0
17.03.2019 22:00:00 1,7 -1,4 15 8 - - WNW 0,0
17.03.2019 21:00:00 1,9 -1,8 13 7 - - WNW 0,0
17.03.2019 20:00:00 3,7 -1,1 8 4 - - WNW 0,0
17.03.2019 19:00:00 2,9 -1,6 5 3 - - SSW 0,0
17.03.2019 18:00:00 4,8 -1,1 22 12 - - NW 0,0
17.03.2019 17:00:00 6,3 -1,2 29 16 50 27 NW 0,0
17.03.2019 16:00:00 5,3 0,7 31 17 - - NNW 0,0
17.03.2019 15:00:00 6,9 0,5 29 16 46 25 NW 0,0

tt = Température de l'air
td = dewpoint
ff = Vitesse du vent
fx = gusts
dd = Direction du vent
rr = Quantités de précipitations

stations d'obs. à proximité